Roswell, NM (88201)

6:23 PM MDT on October 25, 2014 (GMT -0600)
West Roswell Enchanted Hills | Change Station
CLOSE
Current Station
Personal Weather Station
Location: Roswell, NM
Elevation: 3619 ft
Nearby Weather Stations

Elev 3619 ft 33.40 °N, 104.57 °W | Updated 3 seconds ago

Clear
Clear
75.3 °F
Feels Like 78 °F
N
0.0
Wind Variable Wind from ESE

Today
High -- | Low -- °F
--% Chance of Precip.
Yesterday
High -- | Low -- °F
Precip. -- in
7:10 AM 6:13 PM
Waxing Crescent, 5% visible
Pressure 29.94 in
Visibility 10.0 miles
Clouds Clear
Heat Index 78 °F
Dew Point 56 °F
Humidity 51%
Rainfall 0.00 in
Snow Depth Not available.
UV 0 out of 12
Pollen 5.70 out of 12
Air Quality Not available.
Flu Activity Sporadic
METAR KROW 252351Z 15007KT 10SM CLR 25/11 A3008 RMK AO2 SLP138 T02500111 10289 20233 56012

More Conditions Fewer Conditions

Pressure 29.94 in
Visibility 10.0 miles
Clouds Clear
Heat Index 78 °F
Dew Point 56 °F
Humidity 51%
Rainfall 0.00 in
Snow Depth Not available.
UV 0 out of 12
Pollen 5.70 out of 12
Air Quality Not available.
Flu Activity Sporadic
METAR KROW 252351Z 15007KT 10SM CLR 25/11 A3008 RMK AO2 SLP138 T02500111 10289 20233 56012

More Conditions Fewer Conditions

10-Day Weather Forecast

Almanac

Astronomy

Oct. 25, 2014 Rise Set
Actual Time 7:10 AM MDT 6:13 PM MDT
Civil Twilight 6:45 AM MDT 6:38 PM MDT
Nautical Twilight 6:16 AM MDT 7:07 PM MDT
Astronomical Twilight 5:47 AM MDT 7:36 PM MDT
Moon 8:48 AM MDT (10/25) 7:42 PM MDT (10/25)
Length of Visible Light 11h 53m
Length of Day
11h 02m
Tomorrow will be 1m 53s shorter.
Waxing Crescent, 5% of the Moon is Illuminated
Today
Waxing Crescent
Oct 30
First Quarter
Nov 6
Full
Nov 14
Last Quarter
Nov 22
New

Today's Extremes

State Highs State Lows

Community

WunderPhotos

Upload Photos

1,765,039 photos uploaded!

Nearby

Snow Depth

Station Depth Elevation
Gallegos Peak 0 in 9800 ft
Senorita Divide #2 0 in 8600 ft
Red River Pass #2 0 in 9850 ft
Silver Creek Divide 1 in 9000 ft
Frisco Divide 0 in 8000 ft

Earthquake Activity

City Distance Mag. Time & Date
No recent earthquake activity has been reported nearby.
Minimum magnitude displayed is 2.5.

Coastal Water Temperatures

Place Temperature
No Stations Reporting

Nearby Weather Stations